sensor_id;sensor_type;location;lat;lon;timestamp;pressure;altitude;pressure_sealevel;temperature;humidity
17054;BME280;8643;48.824;11.422;2022-09-14T00:02:17;96213.81;;;16.08;100.00
17054;BME280;8643;48.824;11.422;2022-09-14T00:04:45;96209.88;;;16.06;100.00
17054;BME280;8643;48.824;11.422;2022-09-14T00:07:15;96207.88;;;16.03;100.00
17054;BME280;8643;48.824;11.422;2022-09-14T00:09:43;96206.66;;;15.97;100.00
17054;BME280;8643;48.824;11.422;2022-09-14T00:12:11;96193.63;;;15.93;100.00
17054;BME280;8643;48.824;11.422;2022-09-14T00:14:39;96193.25;;;15.95;100.00
17054;BME280;8643;48.824;11.422;2022-09-14T00:17:08;96195.63;;;15.97;100.00
17054;BME280;8643;48.824;11.422;2022-09-14T00:19:36;96200.34;;;15.96;100.00
17054;BME280;8643;48.824;11.422;2022-09-14T00:22:05;96204.72;;;15.97;100.00
17054;BME280;8643;48.824;11.422;2022-09-14T00:24:35;96206.69;;;16.00;100.00
17054;BME280;8643;48.824;11.422;2022-09-14T00:27:03;96204.34;;;16.06;100.00
17054;BME280;8643;48.824;11.422;2022-09-14T00:29:32;96205.16;;;16.10;100.00
17054;BME280;8643;48.824;11.422;2022-09-14T00:32:01;96210.72;;;16.13;100.00
17054;BME280;8643;48.824;11.422;2022-09-14T00:34:30;96214.66;;;16.12;100.00
17054;BME280;8643;48.824;11.422;2022-09-14T00:36:58;96209.50;;;16.11;100.00
17054;BME280;8643;48.824;11.422;2022-09-14T00:39:27;96217.78;;;16.07;100.00
17054;BME280;8643;48.824;11.422;2022-09-14T00:41:56;96208.66;;;16.00;100.00
17054;BME280;8643;48.824;11.422;2022-09-14T00:45:11;96197.50;;;15.85;100.00
17054;BME280;8643;48.824;11.422;2022-09-14T00:47:41;96190.78;;;15.79;100.00
17054;BME280;8643;48.824;11.422;2022-09-14T00:50:10;96178.50;;;15.73;100.00
17054;BME280;8643;48.824;11.422;2022-09-14T00:52:44;96172.97;;;15.69;100.00
17054;BME280;8643;48.824;11.422;2022-09-14T00:55:16;96166.19;;;15.63;100.00
17054;BME280;8643;48.824;11.422;2022-09-14T00:57:49;96167.34;;;15.58;100.00
17054;BME280;8643;48.824;11.422;2022-09-14T01:00:24;96172.88;;;15.58;100.00
17054;BME280;8643;48.824;11.422;2022-09-14T01:02:53;96167.34;;;15.58;100.00
17054;BME280;8643;48.824;11.422;2022-09-14T01:05:32;96168.53;;;15.61;100.00
17054;BME280;8643;48.824;11.422;2022-09-14T01:08:44;96167.34;;;15.58;100.00
17054;BME280;8643;48.824;11.422;2022-09-14T01:11:36;96172.03;;;15.54;100.00
17054;BME280;8643;48.824;11.422;2022-09-14T01:14:15;96168.50;;;15.54;100.00
17054;BME280;8643;48.824;11.422;2022-09-14T01:16:57;96175.56;;;15.51;100.00
17054;BME280;8643;48.824;11.422;2022-09-14T01:19:47;96170.84;;;15.52;100.00
17054;BME280;8643;48.824;11.422;2022-09-14T01:22:25;96157.81;;;15.49;100.00
17054;BME280;8643;48.824;11.422;2022-09-14T01:25:13;96154.22;;;15.45;100.00
17054;BME280;8643;48.824;11.422;2022-09-14T01:27:49;96151.06;;;15.43;100.00
17054;BME280;8643;48.824;11.422;2022-09-14T01:30:21;96149.53;;;15.45;100.00
17054;BME280;8643;48.824;11.422;2022-09-14T01:32:58;96150.31;;;15.46;100.00
17054;BME280;8643;48.824;11.422;2022-09-14T01:35:32;96155.81;;;15.46;100.00
17054;BME280;8643;48.824;11.422;2022-09-14T01:38:08;96158.19;;;15.47;100.00
17054;BME280;8643;48.824;11.422;2022-09-14T01:40:41;96166.09;;;15.49;100.00
17054;BME280;8643;48.824;11.422;2022-09-14T01:43:16;96168.09;;;15.52;100.00
17054;BME280;8643;48.824;11.422;2022-09-14T01:45:49;96166.13;;;15.52;100.00
17054;BME280;8643;48.824;11.422;2022-09-14T01:48:25;96152.31;;;15.52;100.00
17054;BME280;8643;48.824;11.422;2022-09-14T01:50:59;96148.78;;;15.52;100.00
17054;BME280;8643;48.824;11.422;2022-09-14T01:53:36;96135.78;;;15.52;100.00
17054;BME280;8643;48.824;11.422;2022-09-14T01:56:11;96125.91;;;15.51;100.00
17054;BME280;8643;48.824;11.422;2022-09-14T01:58:49;96129.84;;;15.50;100.00
17054;BME280;8643;48.824;11.422;2022-09-14T02:01:23;96125.94;;;15.55;100.00
17054;BME280;8643;48.824;11.422;2022-09-14T02:04:01;96121.59;;;15.54;100.00
17054;BME280;8643;48.824;11.422;2022-09-14T02:06:35;96118.84;;;15.57;100.00
17054;BME280;8643;48.824;11.422;2022-09-14T02:09:08;96114.94;;;15.58;100.00
17054;BME280;8643;48.824;11.422;2022-09-14T02:11:37;96115.28;;;15.53;100.00
17054;BME280;8643;48.824;11.422;2022-09-14T02:14:07;96122.38;;;15.54;100.00
17054;BME280;8643;48.824;11.422;2022-09-14T02:16:36;96128.34;;;15.64;100.00
17054;BME280;8643;48.824;11.422;2022-09-14T02:19:06;96124.81;;;15.63;100.00
17054;BME280;8643;48.824;11.422;2022-09-14T02:21:34;96114.16;;;15.62;100.00
17054;BME280;8643;48.824;11.422;2022-09-14T02:24:04;96114.16;;;15.62;100.00
17054;BME280;8643;48.824;11.422;2022-09-14T02:26:33;96097.59;;;15.62;100.00
17054;BME280;8643;48.824;11.422;2022-09-14T02:29:02;96095.22;;;15.60;100.00
17054;BME280;8643;48.824;11.422;2022-09-14T02:31:49;96074.34;;;15.63;100.00
17054;BME280;8643;48.824;11.422;2022-09-14T02:34:30;96081.06;;;15.65;100.00
17054;BME280;8643;48.824;11.422;2022-09-14T02:37:10;96082.66;;;15.70;100.00
17054;BME280;8643;48.824;11.422;2022-09-14T02:39:47;96077.94;;;15.70;100.00
17054;BME280;8643;48.824;11.422;2022-09-14T02:42:30;96077.16;;;15.70;100.00
17054;BME280;8643;48.824;11.422;2022-09-14T02:45:11;96072.41;;;15.74;100.00
17054;BME280;8643;48.824;11.422;2022-09-14T02:47:54;96072.41;;;15.74;100.00
17054;BME280;8643;48.824;11.422;2022-09-14T02:50:31;96068.47;;;15.68;100.00
17054;BME280;8643;48.824;11.422;2022-09-14T02:53:09;96061.34;;;15.67;100.00
17054;BME280;8643;48.824;11.422;2022-09-14T02:55:45;96050.31;;;15.67;100.00
17054;BME280;8643;48.824;11.422;2022-09-14T02:58:15;96037.72;;;15.69;100.00
17054;BME280;8643;48.824;11.422;2022-09-14T03:00:47;96032.63;;;15.75;100.00
17054;BME280;8643;48.824;11.422;2022-09-14T03:03:20;96036.63;;;15.81;100.00
17054;BME280;8643;48.824;11.422;2022-09-14T03:05:48;96038.56;;;15.81;100.00
17054;BME280;8643;48.824;11.422;2022-09-14T03:08:17;96033.47;;;15.83;100.00
17054;BME280;8643;48.824;11.422;2022-09-14T03:10:45;96033.09;;;15.84;100.00
17054;BME280;8643;48.824;11.422;2022-09-14T03:13:13;96033.47;;;15.83;100.00
17054;BME280;8643;48.824;11.422;2022-09-14T03:15:42;96060.72;;;15.91;100.00
17054;BME280;8643;48.824;11.422;2022-09-14T03:18:11;96119.84;;;15.90;100.00
17054;BME280;8643;48.824;11.422;2022-09-14T03:20:42;96179.41;;;15.88;100.00
17054;BME280;8643;48.824;11.422;2022-09-14T03:23:11;96150.56;;;15.82;100.00
17054;BME280;8643;48.824;11.422;2022-09-14T03:25:42;96178.91;;;15.75;100.00
17054;BME280;8643;48.824;11.422;2022-09-14T03:28:12;96191.81;;;15.64;100.00
17054;BME280;8643;48.824;11.422;2022-09-14T03:30:40;96179.50;;;15.50;100.00
17054;BME280;8643;48.824;11.422;2022-09-14T03:33:08;96154.28;;;15.48;100.00
17054;BME280;8643;48.824;11.422;2022-09-14T03:35:37;96131.38;;;15.44;100.00
17054;BME280;8643;48.824;11.422;2022-09-14T03:38:06;96103.78;;;15.40;100.00
17054;BME280;8643;48.824;11.422;2022-09-14T03:40:35;96078.09;;;15.33;100.00
17054;BME280;8643;48.824;11.422;2022-09-14T03:43:03;96074.13;;;15.27;100.00
17054;BME280;8643;48.824;11.422;2022-09-14T03:45:31;96048.50;;;15.23;100.00
17054;BME280;8643;48.824;11.422;2022-09-14T03:48:00;96048.50;;;15.23;100.00
17054;BME280;8643;48.824;11.422;2022-09-14T03:50:28;96057.16;;;15.25;100.00
17054;BME280;8643;48.824;11.422;2022-09-14T03:52:56;96038.69;;;15.29;100.00
17054;BME280;8643;48.824;11.422;2022-09-14T03:55:26;96023.31;;;15.31;100.00
17054;BME280;8643;48.824;11.422;2022-09-14T03:57:55;96010.31;;;15.32;100.00
17054;BME280;8643;48.824;11.422;2022-09-14T04:00:24;96045.41;;;15.35;100.00
17054;BME280;8643;48.824;11.422;2022-09-14T04:02:52;96113.22;;;15.43;100.00
17054;BME280;8643;48.824;11.422;2022-09-14T04:05:20;96139.25;;;15.42;100.00
17054;BME280;8643;48.824;11.422;2022-09-14T04:07:49;96110.03;;;15.34;100.00
17054;BME280;8643;48.824;11.422;2022-09-14T04:10:17;96084.38;;;15.30;100.00
17054;BME280;8643;48.824;11.422;2022-09-14T04:12:47;96060.31;;;15.23;100.00
17054;BME280;8643;48.824;11.422;2022-09-14T04:15:15;96055.56;;;15.24;100.00
17054;BME280;8643;48.824;11.422;2022-09-14T04:17:44;96125.75;;;15.30;100.00
17054;BME280;8643;48.824;11.422;2022-09-14T04:20:13;96121.84;;;15.31;100.00
17054;BME280;8643;48.824;11.422;2022-09-14T04:22:42;96104.50;;;15.30;100.00
17054;BME280;8643;48.824;11.422;2022-09-14T04:25:11;96061.13;;;15.27;100.00
17054;BME280;8643;48.824;11.422;2022-09-14T04:27:39;96063.91;;;15.31;100.00
17054;BME280;8643;48.824;11.422;2022-09-14T04:30:11;96050.91;;;15.31;100.00
17054;BME280;8643;48.824;11.422;2022-09-14T04:32:40;96052.50;;;15.36;100.00
17054;BME280;8643;48.824;11.422;2022-09-14T04:35:09;96056.88;;;15.37;100.00
17054;BME280;8643;48.824;11.422;2022-09-14T04:37:37;96045.38;;;15.31;100.00
17054;BME280;8643;48.824;11.422;2022-09-14T04:40:07;96041.03;;;15.27;100.00
17054;BME280;8643;48.824;11.422;2022-09-14T04:42:35;96031.97;;;15.26;100.00
17054;BME280;8643;48.824;11.422;2022-09-14T04:45:05;96037.50;;;15.30;100.00
17054;BME280;8643;48.824;11.422;2022-09-14T04:47:35;96017.78;;;15.24;100.00
17054;BME280;8643;48.824;11.422;2022-09-14T04:50:04;96008.69;;;15.20;100.00
17054;BME280;8643;48.824;11.422;2022-09-14T04:52:33;96007.91;;;15.19;100.00
17054;BME280;8643;48.824;11.422;2022-09-14T04:55:01;96003.59;;;15.26;100.00
17054;BME280;8643;48.824;11.422;2022-09-14T04:57:30;96001.97;;;15.17;100.00
17054;BME280;8643;48.824;11.422;2022-09-14T04:59:58;96006.31;;;15.22;100.00
17054;BME280;8643;48.824;11.422;2022-09-14T05:02:26;96005.13;;;15.19;100.00
17054;BME280;8643;48.824;11.422;2022-09-14T05:04:58;95997.25;;;15.21;100.00
17054;BME280;8643;48.824;11.422;2022-09-14T05:07:26;95994.13;;;15.23;100.00
17054;BME280;8643;48.824;11.422;2022-09-14T05:09:55;95993.34;;;15.23;100.00
17054;BME280;8643;48.824;11.422;2022-09-14T05:12:23;96000.03;;;15.25;100.00
17054;BME280;8643;48.824;11.422;2022-09-14T05:14:51;95996.53;;;15.32;100.00
17054;BME280;8643;48.824;11.422;2022-09-14T05:17:20;95996.50;;;15.28;100.00
17054;BME280;8643;48.824;11.422;2022-09-14T05:19:48;95991.00;;;15.28;100.00
17054;BME280;8643;48.824;11.422;2022-09-14T05:22:18;95989.44;;;15.27;100.00
17054;BME280;8643;48.824;11.422;2022-09-14T05:24:48;95991.81;;;15.29;100.00
17054;BME280;8643;48.824;11.422;2022-09-14T05:27:16;95993.75;;;15.28;100.00
17054;BME280;8643;48.824;11.422;2022-09-14T05:29:45;95984.69;;;15.28;100.00
17054;BME280;8643;48.824;11.422;2022-09-14T05:32:13;96007.19;;;15.33;100.00
17054;BME280;8643;48.824;11.422;2022-09-14T05:34:42;96015.88;;;15.35;100.00
17054;BME280;8643;48.824;11.422;2022-09-14T05:37:10;96026.91;;;15.39;100.00
17054;BME280;8643;48.824;11.422;2022-09-14T05:39:40;96026.53;;;15.37;100.00
17054;BME280;8643;48.824;11.422;2022-09-14T05:42:09;96037.19;;;15.42;100.00
17054;BME280;8643;48.824;11.422;2022-09-14T05:44:37;96051.38;;;15.44;100.00
17054;BME280;8643;48.824;11.422;2022-09-14T05:47:05;96056.13;;;15.44;100.00
17054;BME280;8643;48.824;11.422;2022-09-14T05:49:34;96039.56;;;15.40;100.00
17054;BME280;8643;48.824;11.422;2022-09-14T05:52:02;96036.41;;;15.45;100.00
17054;BME280;8643;48.824;11.422;2022-09-14T05:54:31;96035.59;;;15.41;100.00
17054;BME280;8643;48.824;11.422;2022-09-14T05:57:00;96019.81;;;15.38;100.00
17054;BME280;8643;48.824;11.422;2022-09-14T05:59:29;96017.88;;;15.46;100.00
17054;BME280;8643;48.824;11.422;2022-09-14T06:01:58;96011.63;;;15.52;100.00
17054;BME280;8643;48.824;11.422;2022-09-14T06:04:27;96004.19;;;15.64;100.00
17054;BME280;8643;48.824;11.422;2022-09-14T06:06:55;95997.88;;;15.67;100.00
17054;BME280;8643;48.824;11.422;2022-09-14T06:09:43;95993.22;;;15.78;100.00
17054;BME280;8643;48.824;11.422;2022-09-14T06:12:13;95997.59;;;15.90;100.00
17054;BME280;8643;48.824;11.422;2022-09-14T06:14:41;95993.28;;;15.96;100.00
17054;BME280;8643;48.824;11.422;2022-09-14T06:17:10;95989.75;;;15.99;100.00
17054;BME280;8643;48.824;11.422;2022-09-14T06:19:38;95981.03;;;15.93;100.00
17054;BME280;8643;48.824;11.422;2022-09-14T06:22:06;95985.78;;;15.97;100.00
17054;BME280;8643;48.824;11.422;2022-09-14T06:24:35;95988.56;;;15.97;100.00
17054;BME280;8643;48.824;11.422;2022-09-14T06:27:03;95977.91;;;15.91;100.00
17054;BME280;8643;48.824;11.422;2022-09-14T06:29:36;95975.13;;;15.99;100.00
17054;BME280;8643;48.824;11.422;2022-09-14T06:32:04;95985.78;;;15.97;100.00
17054;BME280;8643;48.824;11.422;2022-09-14T06:34:33;95974.34;;;15.94;100.00
17054;BME280;8643;48.824;11.422;2022-09-14T06:37:01;95987.38;;;16.01;100.00
17054;BME280;8643;48.824;11.422;2022-09-14T06:39:29;95987.38;;;16.01;100.00
17054;BME280;8643;48.824;11.422;2022-09-14T06:41:58;95988.94;;;15.99;100.00
17054;BME280;8643;48.824;11.422;2022-09-14T06:44:28;95987.38;;;16.05;100.00
17054;BME280;8643;48.824;11.422;2022-09-14T06:46:57;95972.41;;;16.13;100.00
17054;BME280;8643;48.824;11.422;2022-09-14T06:49:26;95979.16;;;16.34;100.00
17054;BME280;8643;48.824;11.422;2022-09-14T06:51:55;95966.16;;;16.45;100.00
17054;BME280;8643;48.824;11.422;2022-09-14T06:54:23;95981.94;;;16.59;100.00
17054;BME280;8643;48.824;11.422;2022-09-14T06:56:52;95976.81;;;16.57;100.00
17054;BME280;8643;48.824;11.422;2022-09-14T06:59:21;95973.66;;;16.70;100.00
17054;BME280;8643;48.824;11.422;2022-09-14T07:01:49;95977.63;;;16.90;100.00
17054;BME280;8643;48.824;11.422;2022-09-14T07:04:19;95979.97;;;16.88;100.00
17054;BME280;8643;48.824;11.422;2022-09-14T07:06:48;95973.66;;;16.80;100.00
17054;BME280;8643;48.824;11.422;2022-09-14T07:09:18;95981.94;;;16.73;100.00
17054;BME280;8643;48.824;11.422;2022-09-14T07:11:47;95976.41;;;16.84;100.00
17054;BME280;8643;48.824;11.422;2022-09-14T07:14:15;95973.25;;;16.96;100.00
17054;BME280;8643;48.824;11.422;2022-09-14T07:16:43;95980.75;;;16.99;100.00
17054;BME280;8643;48.824;11.422;2022-09-14T07:19:14;95980.38;;;17.01;100.00
17054;BME280;8643;48.824;11.422;2022-09-14T07:21:44;95979.13;;;17.31;100.00
17054;BME280;8643;48.824;11.422;2022-09-14T07:24:12;95975.91;;;17.47;100.00
17054;BME280;8643;48.824;11.422;2022-09-14T07:26:42;95973.13;;;17.54;100.00
17054;BME280;8643;48.824;11.422;2022-09-14T07:29:13;95969.88;;;17.73;100.00
17054;BME280;8643;48.824;11.422;2022-09-14T07:31:44;95986.09;;;17.75;100.00
17054;BME280;8643;48.824;11.422;2022-09-14T07:34:14;95969.56;;;17.53;100.00
17054;BME280;8643;48.824;11.422;2022-09-14T07:36:44;95969.94;;;17.59;100.00
17054;BME280;8643;48.824;11.422;2022-09-14T07:39:15;95980.22;;;17.58;100.00
17054;BME280;8643;48.824;11.422;2022-09-14T07:41:44;95990.59;;;17.29;100.00
17054;BME280;8643;48.824;11.422;2022-09-14T07:44:15;96002.06;;;17.17;100.00
17054;BME280;8643;48.824;11.422;2022-09-14T07:46:45;96011.16;;;17.17;100.00
17054;BME280;8643;48.824;11.422;2022-09-14T07:49:15;96005.19;;;17.37;100.00
17054;BME280;8643;48.824;11.422;2022-09-14T07:51:45;96018.25;;;17.26;100.00
17054;BME280;8643;48.824;11.422;2022-09-14T07:54:16;96014.31;;;17.27;100.00
17054;BME280;8643;48.824;11.422;2022-09-14T07:56:45;96013.91;;;17.39;100.00
17054;BME280;8643;48.824;11.422;2022-09-14T07:59:15;96014.97;;;17.70;100.00
17054;BME280;8643;48.824;11.422;2022-09-14T08:02:04;96015.72;;;17.96;100.00
17054;BME280;8643;48.824;11.422;2022-09-14T08:04:34;96007.69;;;18.16;100.00
17054;BME280;8643;48.824;11.422;2022-09-14T08:07:05;96003.75;;;18.73;100.00
17054;BME280;8643;48.824;11.422;2022-09-14T08:09:34;96009.16;;;19.36;100.00
17054;BME280;8643;48.824;11.422;2022-09-14T08:12:02;96005.16;;;19.37;100.00
17054;BME280;8643;48.824;11.422;2022-09-14T08:14:31;96006.03;;;19.31;100.00
17054;BME280;8643;48.824;11.422;2022-09-14T08:17:00;96007.81;;;19.10;100.00
17054;BME280;8643;48.824;11.422;2022-09-14T08:19:28;96005.34;;;19.19;100.00
17054;BME280;8643;48.824;11.422;2022-09-14T08:21:56;96010.19;;;19.08;100.00
17054;BME280;8643;48.824;11.422;2022-09-14T08:24:26;96015.94;;;18.86;100.00
17054;BME280;8643;48.824;11.422;2022-09-14T08:26:54;96016.75;;;18.80;100.00
17054;BME280;8643;48.824;11.422;2022-09-14T08:29:22;96015.13;;;18.90;100.00
17054;BME280;8643;48.824;11.422;2022-09-14T08:31:51;96019.31;;;18.56;100.00
17054;BME280;8643;48.824;11.422;2022-09-14T08:34:20;96022.56;;;18.44;100.00
17054;BME280;8643;48.824;11.422;2022-09-14T08:36:48;96006.28;;;18.49;100.00
17054;BME280;8643;48.824;11.422;2022-09-14T08:39:17;95995.97;;;18.54;100.00
17054;BME280;8643;48.824;11.422;2022-09-14T08:41:53;95992.47;;;18.42;100.00
17054;BME280;8643;48.824;11.422;2022-09-14T08:44:28;95994.47;;;18.38;100.00
17054;BME280;8643;48.824;11.422;2022-09-14T08:47:02;95999.34;;;18.20;100.00
17054;BME280;8643;48.824;11.422;2022-09-14T08:49:46;95996.59;;;18.16;100.00
17054;BME280;8643;48.824;11.422;2022-09-14T08:52:24;95998.88;;;18.28;100.00
17054;BME280;8643;48.824;11.422;2022-09-14T08:54:57;96002.69;;;18.56;100.00
17054;BME280;8643;48.824;11.422;2022-09-14T08:57:42;96006.03;;;18.89;100.00
17054;BME280;8643;48.824;11.422;2022-09-14T09:00:16;96006.19;;;19.13;100.00
17054;BME280;8643;48.824;11.422;2022-09-14T09:03:27;96005.47;;;19.47;100.00
17054;BME280;8643;48.824;11.422;2022-09-14T09:06:09;96014.97;;;19.87;100.00
17054;BME280;8643;48.824;11.422;2022-09-14T09:08:53;96023.78;;;19.75;100.00
17054;BME280;8643;48.824;11.422;2022-09-14T09:11:30;96023.66;;;20.20;100.00
17054;BME280;8643;48.824;11.422;2022-09-14T09:14:14;96023.31;;;20.18;100.00
17054;BME280;8643;48.824;11.422;2022-09-14T09:16:49;96034.47;;;20.45;100.00
17054;BME280;8643;48.824;11.422;2022-09-14T09:19:23;96040.50;;;20.37;100.00
17054;BME280;8643;48.824;11.422;2022-09-14T09:21:56;96047.72;;;21.16;100.00
17054;BME280;8643;48.824;11.422;2022-09-14T09:24:30;96045.47;;;21.54;100.00
17054;BME280;8643;48.824;11.422;2022-09-14T09:27:09;96043.06;;;21.76;100.00
17054;BME280;8643;48.824;11.422;2022-09-14T09:29:40;96048.50;;;22.24;100.00
17054;BME280;8643;48.824;11.422;2022-09-14T09:32:15;96033.50;;;22.38;100.00
17054;BME280;8643;48.824;11.422;2022-09-14T09:35:00;96035.91;;;22.36;100.00
17054;BME280;8643;48.824;11.422;2022-09-14T09:37:54;96037.66;;;22.82;100.00
17054;BME280;8643;48.824;11.422;2022-09-14T09:40:31;96042.66;;;23.08;100.00
17054;BME280;8643;48.824;11.422;2022-09-14T09:43:08;96057.19;;;22.82;100.00
17054;BME280;8643;48.824;11.422;2022-09-14T09:45:54;96054.28;;;21.93;100.00
17054;BME280;8643;48.824;11.422;2022-09-14T09:48:27;96050.59;;;21.32;100.00
17054;BME280;8643;48.824;11.422;2022-09-14T09:51:07;96053.56;;;20.98;100.00
17054;BME280;8643;48.824;11.422;2022-09-14T09:53:47;96057.19;;;20.67;100.00
17054;BME280;8643;48.824;11.422;2022-09-14T09:56:19;96057.66;;;20.62;100.00
17054;BME280;8643;48.824;11.422;2022-09-14T09:58:49;96049.69;;;20.64;100.00
17054;BME280;8643;48.824;11.422;2022-09-14T10:01:26;96038.50;;;20.68;100.00
17054;BME280;8643;48.824;11.422;2022-09-14T10:04:05;96042.25;;;20.85;100.00
17054;BME280;8643;48.824;11.422;2022-09-14T10:06:43;96032.75;;;21.06;100.00
17054;BME280;8643;48.824;11.422;2022-09-14T10:09:16;96033.72;;;21.19;100.00
17054;BME280;8643;48.824;11.422;2022-09-14T10:11:46;96029.09;;;21.33;100.00
17054;BME280;8643;48.824;11.422;2022-09-14T10:14:23;96024.22;;;21.84;100.00
17054;BME280;8643;48.824;11.422;2022-09-14T10:17:05;96021.41;;;22.04;100.00
17054;BME280;8643;48.824;11.422;2022-09-14T10:19:34;96007.75;;;22.30;100.00
17054;BME280;8643;48.824;11.422;2022-09-14T10:22:16;96028.28;;;22.56;100.00
17054;BME280;8643;48.824;11.422;2022-09-14T10:24:58;96012.88;;;22.68;100.00
17054;BME280;8643;48.824;11.422;2022-09-14T10:27:46;96012.53;;;22.09;100.00
17054;BME280;8643;48.824;11.422;2022-09-14T10:30:18;96008.47;;;22.34;100.00
17054;BME280;8643;48.824;11.422;2022-09-14T10:32:55;95998.25;;;22.64;100.00
17054;BME280;8643;48.824;11.422;2022-09-14T10:35:38;96007.72;;;22.66;100.00
17054;BME280;8643;48.824;11.422;2022-09-14T10:38:29;96000.81;;;22.38;100.00
17054;BME280;8643;48.824;11.422;2022-09-14T10:41:21;96003.13;;;22.93;100.00
17054;BME280;8643;48.824;11.422;2022-09-14T10:44:32;96010.81;;;23.67;100.00
17054;BME280;8643;48.824;11.422;2022-09-14T10:47:22;95993.72;;;23.94;100.00
17054;BME280;8643;48.824;11.422;2022-09-14T10:50:10;96002.25;;;24.16;100.00
17054;BME280;8643;48.824;11.422;2022-09-14T10:52:58;95997.97;;;23.99;100.00
17054;BME280;8643;48.824;11.422;2022-09-14T10:55:38;96000.63;;;23.60;100.00
17054;BME280;8643;48.824;11.422;2022-09-14T10:58:25;96000.88;;;24.89;100.00
17054;BME280;8643;48.824;11.422;2022-09-14T11:01:12;95986.34;;;25.86;99.75
17054;BME280;8643;48.824;11.422;2022-09-14T11:04:01;95987.59;;;25.28;98.19
17054;BME280;8643;48.824;11.422;2022-09-14T11:06:45;95988.91;;;25.36;98.57
17054;BME280;8643;48.824;11.422;2022-09-14T11:09:23;95979.91;;;26.21;95.53
17054;BME280;8643;48.824;11.422;2022-09-14T11:12:06;95966.94;;;26.55;93.70
17054;BME280;8643;48.824;11.422;2022-09-14T11:14:57;95963.91;;;26.71;91.00
17054;BME280;8643;48.824;11.422;2022-09-14T11:17:50;95941.03;;;26.10;92.18
17054;BME280;8643;48.824;11.422;2022-09-14T11:20:32;95941.66;;;26.86;89.50
17054;BME280;8643;48.824;11.422;2022-09-14T11:23:32;95937.56;;;26.68;88.62
17054;BME280;8643;48.824;11.422;2022-09-14T11:26:11;95932.22;;;27.39;88.74
17054;BME280;8643;48.824;11.422;2022-09-14T11:28:46;95924.47;;;26.75;88.65
17054;BME280;8643;48.824;11.422;2022-09-14T11:31:22;95921.19;;;26.67;88.40
17054;BME280;8643;48.824;11.422;2022-09-14T11:33:58;95916.16;;;26.21;88.89
17054;BME280;8643;48.824;11.422;2022-09-14T11:36:36;95916.84;;;26.94;88.89
17054;BME280;8643;48.824;11.422;2022-09-14T11:39:18;95920.66;;;27.28;87.05
17054;BME280;8643;48.824;11.422;2022-09-14T11:41:52;95922.84;;;27.79;82.15
17054;BME280;8643;48.824;11.422;2022-09-14T11:44:28;95925.50;;;27.27;82.94
17054;BME280;8643;48.824;11.422;2022-09-14T11:47:04;95921.50;;;26.69;86.65
17054;BME280;8643;48.824;11.422;2022-09-14T11:49:48;95921.56;;;26.56;85.28
17054;BME280;8643;48.824;11.422;2022-09-14T11:52:20;95920.13;;;26.42;83.86
17054;BME280;8643;48.824;11.422;2022-09-14T11:54:51;95913.75;;;26.10;86.88
17054;BME280;8643;48.824;11.422;2022-09-14T11:57:24;95920.09;;;26.02;85.72
17054;BME280;8643;48.824;11.422;2022-09-14T11:59:55;95920.16;;;25.89;89.52
17054;BME280;8643;48.824;11.422;2022-09-14T12:02:57;95920.25;;;25.98;85.40
17054;BME280;8643;48.824;11.422;2022-09-14T12:05:32;95912.72;;;25.95;86.12
17054;BME280;8643;48.824;11.422;2022-09-14T12:11:22;95903.59;;;26.04;87.06
17054;BME280;8643;48.824;11.422;2022-09-14T12:14:14;95911.50;;;25.52;88.25
17054;BME280;8643;48.824;11.422;2022-09-14T12:17:12;95917.75;;;24.99;92.54
17054;BME280;8643;48.824;11.422;2022-09-14T12:20:41;95904.59;;;25.09;91.65
17054;BME280;8643;48.824;11.422;2022-09-14T12:23:28;95914.50;;;25.00;94.06
17054;BME280;8643;48.824;11.422;2022-09-14T12:26:36;95913.00;;;24.61;92.19
17054;BME280;8643;48.824;11.422;2022-09-14T12:29:30;95910.97;;;24.23;95.67
17054;BME280;8643;48.824;11.422;2022-09-14T12:32:23;95907.28;;;24.39;95.18
17054;BME280;8643;48.824;11.422;2022-09-14T12:35:44;95915.34;;;24.11;97.38
17054;BME280;8643;48.824;11.422;2022-09-14T12:39:04;95912.31;;;24.05;98.28
17054;BME280;8643;48.824;11.422;2022-09-14T12:42:27;95904.38;;;23.91;96.62
17054;BME280;8643;48.824;11.422;2022-09-14T12:44:55;95908.13;;;23.84;95.43
17054;BME280;8643;48.824;11.422;2022-09-14T12:47:57;95921.28;;;23.71;95.65
17054;BME280;8643;48.824;11.422;2022-09-14T12:50:29;95924.19;;;23.67;96.63
17054;BME280;8643;48.824;11.422;2022-09-14T12:53:20;95925.16;;;23.60;95.23
17054;BME280;8643;48.824;11.422;2022-09-14T12:56:03;95924.03;;;23.58;95.88
17054;BME280;8643;48.824;11.422;2022-09-14T12:58:54;95936.00;;;23.58;96.97
17054;BME280;8643;48.824;11.422;2022-09-14T13:01:37;95930.53;;;23.68;96.53
17054;BME280;8643;48.824;11.422;2022-09-14T13:04:14;95920.13;;;23.85;95.24
17054;BME280;8643;48.824;11.422;2022-09-14T13:06:46;95920.50;;;24.25;95.27
17054;BME280;8643;48.824;11.422;2022-09-14T13:09:19;95920.59;;;24.47;92.47
17054;BME280;8643;48.824;11.422;2022-09-14T13:11:54;95915.53;;;24.81;92.42
17054;BME280;8643;48.824;11.422;2022-09-14T13:14:30;95906.16;;;25.67;87.11
17054;BME280;8643;48.824;11.422;2022-09-14T13:17:01;95900.78;;;26.04;87.84
17054;BME280;8643;48.824;11.422;2022-09-14T13:19:32;95902.50;;;25.57;85.97
17054;BME280;8643;48.824;11.422;2022-09-14T13:22:02;95897.44;;;24.73;88.81
17054;BME280;8643;48.824;11.422;2022-09-14T13:24:45;95895.84;;;24.46;91.58
17054;BME280;8643;48.824;11.422;2022-09-14T13:27:20;95894.31;;;24.19;92.60
17054;BME280;8643;48.824;11.422;2022-09-14T13:30:00;95902.81;;;24.03;92.23
17054;BME280;8643;48.824;11.422;2022-09-14T13:32:30;95904.47;;;23.87;92.67
17054;BME280;8643;48.824;11.422;2022-09-14T13:35:02;95900.22;;;23.95;97.17
17054;BME280;8643;48.824;11.422;2022-09-14T13:37:31;95897.53;;;24.05;94.46